createdAt,value
2018-04-01T00:01:25.872Z,18.13
2018-04-01T00:03:51.968Z,17.00
2018-04-01T00:06:18.038Z,17.03
2018-04-01T00:08:44.118Z,16.27
2018-04-01T00:11:28.885Z,17.80
2018-04-01T00:13:55.685Z,19.87
2018-04-01T00:16:21.806Z,17.97
2018-04-01T00:18:47.952Z,18.00
2018-04-01T00:21:14.036Z,18.20
2018-04-01T00:23:40.110Z,20.57
2018-04-01T00:26:06.238Z,20.13
2018-04-01T00:28:32.335Z,18.73
2018-04-01T00:30:58.427Z,18.43
2018-04-01T00:33:24.525Z,20.37
2018-04-01T00:35:50.566Z,19.27
2018-04-01T00:38:16.661Z,20.40
2018-04-01T00:40:42.718Z,19.27
2018-04-01T00:43:08.771Z,19.07
2018-04-01T00:45:34.875Z,21.17
2018-04-01T00:48:00.951Z,20.87
2018-04-01T00:50:34.082Z,20.63
2018-04-01T00:53:00.923Z,20.17
2018-04-01T00:55:27.793Z,22.87
2018-04-01T00:57:54.596Z,21.97
2018-04-01T01:00:20.668Z,22.27
2018-04-01T01:02:47.521Z,21.87
2018-04-01T01:05:13.577Z,22.30
2018-04-01T01:08:01.330Z,23.97
2018-04-01T01:10:27.410Z,24.60
2018-04-01T01:12:53.536Z,23.50
2018-04-01T01:15:19.555Z,24.70
2018-04-01T01:17:45.670Z,24.53
2018-04-01T01:20:12.558Z,21.90
2018-04-01T01:22:38.690Z,24.70
2018-04-01T01:25:04.836Z,21.80
2018-04-01T01:27:30.930Z,25.30
2018-04-01T01:29:57.745Z,25.27
2018-04-01T01:32:23.833Z,26.13
2018-04-01T01:34:50.625Z,25.30
2018-04-01T01:37:16.684Z,26.87
2018-04-01T01:39:42.770Z,23.87
2018-04-01T01:42:09.593Z,27.63
2018-04-01T01:44:35.686Z,26.17
2018-04-01T01:47:01.793Z,26.43
2018-04-01T01:49:28.703Z,24.77
2018-04-01T01:51:54.826Z,26.70
2018-04-01T01:54:20.868Z,27.93
2018-04-01T01:56:46.981Z,27.30
2018-04-01T01:59:13.062Z,24.30
2018-04-01T02:01:39.164Z,26.10
2018-04-01T02:04:05.209Z,24.83
2018-04-01T02:06:31.282Z,25.03
2018-04-01T02:08:57.316Z,27.63
2018-04-01T02:11:23.432Z,24.57
2018-04-01T02:13:49.515Z,25.87
2018-04-01T02:16:16.391Z,23.77
2018-04-01T02:18:43.152Z,25.97
2018-04-01T02:21:15.187Z,25.97
2018-04-01T02:23:41.319Z,27.13
2018-04-01T02:26:08.106Z,27.20
2018-04-01T02:28:34.913Z,26.63
2018-04-01T02:31:00.964Z,28.20
2018-04-01T02:33:27.006Z,26.57
2018-04-01T02:35:53.824Z,25.87
2018-04-01T02:38:19.915Z,27.23
2018-04-01T02:40:46.710Z,25.40
2018-04-01T02:43:12.808Z,26.90
2018-04-01T02:45:38.864Z,28.00
2018-04-01T02:48:04.946Z,28.07
2018-04-01T02:50:31.080Z,26.03
2018-04-01T02:52:57.227Z,25.00
2018-04-01T02:55:23.314Z,25.03
2018-04-01T02:57:49.397Z,25.77
2018-04-01T03:00:15.469Z,25.03
2018-04-01T03:02:42.313Z,25.53
2018-04-01T03:05:08.374Z,23.87
2018-04-01T03:07:35.185Z,26.10
2018-04-01T03:10:01.470Z,26.47
2018-04-01T03:12:28.239Z,24.87
2018-04-01T03:14:54.375Z,27.03
2018-04-01T03:17:20.428Z,26.20
2018-04-01T03:19:46.487Z,25.30
2018-04-01T03:22:12.579Z,26.80
2018-04-01T03:24:39.376Z,27.97
2018-04-01T03:27:05.514Z,25.60
2018-04-01T03:29:31.572Z,27.87
2018-04-01T03:31:58.381Z,25.43
2018-04-01T03:34:24.562Z,25.93
2018-04-01T03:36:51.398Z,23.97
2018-04-01T03:39:17.488Z,24.73
2018-04-01T03:41:44.273Z,25.73
2018-04-01T03:44:10.381Z,26.57
2018-04-01T03:46:37.213Z,27.90
2018-04-01T03:49:03.566Z,27.10
2018-04-01T03:51:30.362Z,26.00
2018-04-01T03:53:56.431Z,26.10
2018-04-01T03:56:22.531Z,24.93
2018-04-01T03:58:48.610Z,27.40
2018-04-01T04:01:14.754Z,26.23
2018-04-01T04:03:40.836Z,27.40
2018-04-01T04:06:07.028Z,26.53
2018-04-01T04:08:33.192Z,28.73
2018-04-01T04:10:59.990Z,26.93
2018-04-01T04:13:26.138Z,27.00
2018-04-01T04:15:52.279Z,26.83
2018-04-01T04:18:18.313Z,26.33
2018-04-01T04:20:44.421Z,27.63
2018-04-01T04:23:10.435Z,26.47
2018-04-01T04:25:36.531Z,29.17
2018-04-01T04:28:02.682Z,26.83
2018-04-01T04:30:28.804Z,24.80
2018-04-01T04:32:54.854Z,27.67
2018-04-01T04:35:20.926Z,25.43
2018-04-01T04:37:47.722Z,25.87
2018-04-01T04:40:13.752Z,25.23
2018-04-01T04:42:39.836Z,26.97
2018-04-01T04:45:05.926Z,26.67
2018-04-01T04:47:32.016Z,26.67
2018-04-01T04:49:58.087Z,25.50
2018-04-01T04:52:24.232Z,25.73
2018-04-01T04:54:50.503Z,24.50
2018-04-01T04:57:16.612Z,26.10
2018-04-01T04:59:42.662Z,26.43
2018-04-01T05:02:08.754Z,27.40
2018-04-01T05:04:35.613Z,26.63
2018-04-01T05:07:02.443Z,27.33
2018-04-01T05:09:28.563Z,26.53
2018-04-01T05:11:54.633Z,28.30
2018-04-01T05:14:21.462Z,28.63
2018-04-01T05:16:47.578Z,27.47
2018-04-01T05:19:13.681Z,25.87
2018-04-01T05:21:40.496Z,24.67
2018-04-01T05:24:06.589Z,26.43
2018-04-01T05:26:32.710Z,25.90
2018-04-01T05:28:59.558Z,25.57
2018-04-01T05:31:26.418Z,21.83
2018-04-01T05:33:53.218Z,27.27
2018-04-01T05:36:19.300Z,26.63
2018-04-01T05:38:46.091Z,26.00
2018-04-01T05:41:12.142Z,26.67
2018-04-01T05:43:38.278Z,27.43
2018-04-01T05:46:04.410Z,25.40
2018-04-01T05:48:30.540Z,23.27
2018-04-01T05:50:56.620Z,23.70
2018-04-01T05:53:22.694Z,24.30
2018-04-01T05:55:48.790Z,22.17
2018-04-01T05:58:14.881Z,25.13
2018-04-01T06:00:40.986Z,26.77
2018-04-01T06:03:07.077Z,25.83
2018-04-01T06:05:33.106Z,24.30
2018-04-01T06:07:59.148Z,25.57
2018-04-01T06:10:25.246Z,23.60
2018-04-01T06:12:52.073Z,25.47
2018-04-01T06:15:18.182Z,26.87
2018-04-01T06:17:44.249Z,25.20
2018-04-01T06:20:10.354Z,26.20
2018-04-01T06:22:36.456Z,24.60
2018-04-01T06:25:07.946Z,25.67
2018-04-01T06:27:34.146Z,24.27
2018-04-01T06:30:00.190Z,22.93
2018-04-01T06:32:27.021Z,23.53
2018-04-01T06:34:53.090Z,21.77
2018-04-01T06:37:19.938Z,23.77
2018-04-01T06:39:46.011Z,23.53
2018-04-01T06:42:12.079Z,20.67
2018-04-01T06:44:38.182Z,23.17
2018-04-01T06:47:04.300Z,22.37
2018-04-01T06:49:30.337Z,22.27
2018-04-01T06:51:56.466Z,22.83
2018-04-01T06:54:23.307Z,21.70
2018-04-01T06:56:49.356Z,21.93
2018-04-01T06:59:16.222Z,20.87
2018-04-01T07:01:43.050Z,23.07
2018-04-01T07:04:09.221Z,22.53
2018-04-01T07:06:36.066Z,21.93
2018-04-01T07:09:03.319Z,20.47
2018-04-01T07:11:30.222Z,22.43
2018-04-01T07:13:56.358Z,23.97
2018-04-01T07:16:28.914Z,21.80
2018-04-01T07:18:55.729Z,22.90
2018-04-01T07:21:21.826Z,21.30
2018-04-01T07:23:48.934Z,21.77
2018-04-01T07:26:15.010Z,21.87
2018-04-01T07:28:41.804Z,22.83
2018-04-01T07:31:07.901Z,23.17
2018-04-01T07:33:34.184Z,23.67
2018-04-01T07:36:00.318Z,22.93
2018-04-01T07:38:26.395Z,23.10
2018-04-01T07:40:52.487Z,22.10
2018-04-01T07:43:20.642Z,21.80
2018-04-01T07:45:46.794Z,21.90
2018-04-01T07:48:13.626Z,22.07
2018-04-01T07:50:39.722Z,21.13
2018-04-01T07:53:05.890Z,22.20
2018-04-01T07:55:31.986Z,21.77
2018-04-01T07:57:58.090Z,21.63
2018-04-01T08:00:24.941Z,22.50
2018-04-01T08:02:51.068Z,22.37
2018-04-01T08:05:17.218Z,20.83
2018-04-01T08:07:43.319Z,20.57
2018-04-01T08:10:09.465Z,20.50
2018-04-01T08:12:35.592Z,22.30
2018-04-01T08:15:01.700Z,23.17
2018-04-01T08:17:27.887Z,22.33
2018-04-01T08:19:53.932Z,24.90
2018-04-01T08:22:20.074Z,21.17
2018-04-01T08:24:46.154Z,23.67
2018-04-01T08:27:12.248Z,24.27
2018-04-01T08:29:38.515Z,24.17
2018-04-01T08:32:05.353Z,23.77
2018-04-01T08:34:36.427Z,25.63
2018-04-01T08:37:03.240Z,26.07
2018-04-01T08:39:29.353Z,23.40
2018-04-01T08:41:55.422Z,25.63
2018-04-01T08:44:21.501Z,25.83
2018-04-01T08:46:48.320Z,26.53
2018-04-01T08:49:14.430Z,22.87
2018-04-01T08:51:40.481Z,27.77
2018-04-01T08:54:06.958Z,28.80
2018-04-01T08:56:35.819Z,28.17
2018-04-01T08:59:01.953Z,31.30
2018-04-01T09:01:35.238Z,26.53
2018-04-01T09:04:02.135Z,31.60
2018-04-01T09:06:28.154Z,27.83
2018-04-01T09:08:55.482Z,29.20
2018-04-01T09:11:22.326Z,31.03
2018-04-01T09:13:48.470Z,30.83
2018-04-01T09:16:15.385Z,39.60
2018-04-01T09:18:41.508Z,34.37
2018-04-01T09:21:07.837Z,28.30
2018-04-01T09:23:34.323Z,28.40
2018-04-01T09:26:07.490Z,30.30
2018-04-01T09:28:35.155Z,30.00
2018-04-01T09:31:01.303Z,29.97
2018-04-01T09:33:27.484Z,28.70
2018-04-01T09:35:53.546Z,28.93
2018-04-01T09:38:32.885Z,27.27
2018-04-01T09:40:59.136Z,27.57
2018-04-01T09:43:25.984Z,25.53
2018-04-01T09:45:59.397Z,28.67
2018-04-01T09:48:26.228Z,27.43
2018-04-01T09:50:52.427Z,29.50
2018-04-01T09:53:18.585Z,24.13
2018-04-01T09:55:44.656Z,25.17
2018-04-01T09:58:10.880Z,25.17
2018-04-01T10:00:40.158Z,24.43
2018-04-01T10:03:07.818Z,23.80
2018-04-01T10:05:34.690Z,23.47
2018-04-01T10:08:01.911Z,20.40
2018-04-01T10:10:31.664Z,22.03
2018-04-01T10:13:04.203Z,22.53
2018-04-01T10:15:30.673Z,18.77
2018-04-01T10:17:57.643Z,19.00
2018-04-01T10:20:24.150Z,15.97
2018-04-01T10:22:51.532Z,13.03
2018-04-01T10:25:18.085Z,12.07
2018-04-01T10:27:44.686Z,10.60
2018-04-01T10:30:11.093Z,9.80
2018-04-01T10:32:37.863Z,10.30
2018-04-01T10:35:04.671Z,10.73
2018-04-01T10:37:31.137Z,10.10
2018-04-01T10:39:57.432Z,10.77
2018-04-01T10:42:23.800Z,9.47
2018-04-01T10:44:50.132Z,8.53
2018-04-01T10:47:16.649Z,8.33
2018-04-01T10:49:43.066Z,7.83
2018-04-01T10:52:09.608Z,7.20
2018-04-01T10:54:36.392Z,6.63
2018-04-01T10:57:02.522Z,5.90
2018-04-01T10:59:29.382Z,5.90
2018-04-01T11:01:55.454Z,6.23
2018-04-01T11:04:21.560Z,6.07
2018-04-01T11:06:48.361Z,6.67
2018-04-01T11:09:33.164Z,6.93
2018-04-01T11:11:59.243Z,7.63
2018-04-01T11:14:25.399Z,7.40
2018-04-01T11:16:51.538Z,7.50
2018-04-01T11:19:17.677Z,7.40
2018-04-01T11:21:43.826Z,8.53
2018-04-01T11:24:11.171Z,8.50
2018-04-01T11:26:37.351Z,9.40
2018-04-01T11:29:03.549Z,9.93
2018-04-01T11:31:29.843Z,9.70
2018-04-01T11:33:56.085Z,9.87
2018-04-01T11:36:22.232Z,11.00
2018-04-01T11:38:48.376Z,12.00
2018-04-01T11:41:15.290Z,11.03
2018-04-01T11:43:41.452Z,11.17
2018-04-01T11:46:07.837Z,10.83
2018-04-01T11:48:34.599Z,11.47
2018-04-01T11:51:00.843Z,11.60
2018-04-01T11:53:26.982Z,11.20
2018-04-01T11:55:53.266Z,12.07
2018-04-01T11:58:19.397Z,11.73
2018-04-01T12:00:45.538Z,11.47
2018-04-01T12:03:11.683Z,11.70
2018-04-01T12:05:38.165Z,11.30
2018-04-01T12:08:04.671Z,11.13
2018-04-01T12:10:30.814Z,11.73
2018-04-01T12:12:56.946Z,11.70
2018-04-01T12:15:23.098Z,11.97
2018-04-01T12:17:49.178Z,11.00
2018-04-01T12:20:15.301Z,12.20
2018-04-01T12:22:42.149Z,11.40
2018-04-01T12:25:08.425Z,12.03
2018-04-01T12:27:35.472Z,13.30
2018-04-01T12:30:01.827Z,12.60
2018-04-01T12:32:27.944Z,13.17
2018-04-01T12:34:54.872Z,11.00
2018-04-01T12:37:21.138Z,12.10
2018-04-01T12:39:47.346Z,10.93
2018-04-01T12:42:13.640Z,11.27
2018-04-01T12:44:40.114Z,10.23
2018-04-01T12:47:06.517Z,10.63
2018-04-01T12:49:32.737Z,10.60
2018-04-01T12:51:58.849Z,11.03
2018-04-01T12:54:25.780Z,11.17
2018-04-01T12:56:55.912Z,11.10
2018-04-01T12:59:22.033Z,10.77
2018-04-01T13:01:48.215Z,11.00
2018-04-01T13:04:14.290Z,12.00
2018-04-01T13:06:41.099Z,11.77
2018-04-01T13:09:08.151Z,11.70
2018-04-01T13:11:34.359Z,11.37
2018-04-01T13:14:01.200Z,10.20
2018-04-01T13:16:27.990Z,9.33
2018-04-01T13:18:54.069Z,10.03
2018-04-01T13:21:20.255Z,10.63
2018-04-01T13:23:46.443Z,11.30
2018-04-01T13:26:12.494Z,11.80
2018-04-01T13:28:38.594Z,12.53
2018-04-01T13:31:04.831Z,12.90
2018-04-01T13:33:31.685Z,13.63
2018-04-01T13:35:57.786Z,13.73
2018-04-01T13:38:24.625Z,10.97
2018-04-01T13:40:50.718Z,11.13
2018-04-01T13:43:16.767Z,10.53
2018-04-01T13:45:42.862Z,10.80
2018-04-01T13:48:10.171Z,9.13
2018-04-01T13:50:36.759Z,8.87
2018-04-01T13:53:04.861Z,9.70
2018-04-01T13:55:31.002Z,8.67
2018-04-01T13:57:57.847Z,8.90
2018-04-01T14:00:24.711Z,9.63
2018-04-01T14:02:51.522Z,8.70
2018-04-01T14:05:23.443Z,7.43
2018-04-01T14:07:50.284Z,7.23
2018-04-01T14:10:16.375Z,7.37
2018-04-01T14:12:42.461Z,7.27
2018-04-01T14:15:09.649Z,6.97
2018-04-01T14:17:36.172Z,6.53
2018-04-01T14:20:02.359Z,6.60
2018-04-01T14:22:28.386Z,6.33
2018-04-01T14:24:54.518Z,6.30
2018-04-01T14:27:20.556Z,5.20
2018-04-01T14:29:46.645Z,5.80
2018-04-01T14:32:12.782Z,6.20
2018-04-01T14:34:50.265Z,5.60
2018-04-01T14:37:16.436Z,5.60
2018-04-01T14:39:43.609Z,5.87
2018-04-01T14:42:10.452Z,6.90
2018-04-01T14:44:36.636Z,6.70
2018-04-01T14:47:02.812Z,6.93
2018-04-01T14:49:29.616Z,6.83
2018-04-01T14:51:55.766Z,5.87
2018-04-01T14:54:21.862Z,6.13
2018-04-01T14:56:48.681Z,5.73
2018-04-01T14:59:15.389Z,7.00
2018-04-01T15:01:41.645Z,6.50
2018-04-01T15:04:07.834Z,6.47
2018-04-01T15:06:33.959Z,6.13
2018-04-01T15:09:12.788Z,6.70
2018-04-01T15:11:38.950Z,6.73
2018-04-01T15:14:05.027Z,8.57
2018-04-01T15:16:31.154Z,11.80
2018-04-01T15:18:57.937Z,6.80
2018-04-01T15:21:24.042Z,6.77
2018-04-01T15:23:50.886Z,7.10
2018-04-01T15:26:34.774Z,11.60
2018-04-01T15:29:00.875Z,8.17
2018-04-01T15:31:26.939Z,8.00
2018-04-01T15:33:53.801Z,11.67
2018-04-01T15:36:19.887Z,8.70
2018-04-01T15:38:51.418Z,8.60
2018-04-01T15:41:18.358Z,8.40
2018-04-01T15:43:45.246Z,10.03
2018-04-01T15:46:11.423Z,8.37
2018-04-01T15:48:37.553Z,7.90
2018-04-01T15:51:03.867Z,8.97
2018-04-01T15:53:31.038Z,8.67
2018-04-01T15:55:57.124Z,8.43
2018-04-01T15:58:23.228Z,8.77
2018-04-01T16:00:49.310Z,7.70
2018-04-01T16:03:16.204Z,7.90
2018-04-01T16:05:42.275Z,7.73
2018-04-01T16:08:09.264Z,7.63
2018-04-01T16:10:35.875Z,7.80
2018-04-01T16:13:02.234Z,7.83
2018-04-01T16:15:28.345Z,8.13
2018-04-01T16:17:54.496Z,7.50
2018-04-01T16:20:20.560Z,6.97
2018-04-01T16:22:47.513Z,7.53
2018-04-01T16:25:13.639Z,7.30
2018-04-01T16:27:40.492Z,7.20
2018-04-01T16:30:07.590Z,6.87
2018-04-01T16:32:34.661Z,6.00
2018-04-01T16:35:00.984Z,6.60
2018-04-01T16:37:27.833Z,7.00
2018-04-01T16:39:54.643Z,6.17
2018-04-01T16:42:20.735Z,5.47
2018-04-01T16:44:47.574Z,5.97
2018-04-01T16:47:13.709Z,5.53
2018-04-01T16:49:39.903Z,5.63
2018-04-01T16:52:06.399Z,5.90
2018-04-01T16:54:32.490Z,5.57
2018-04-01T16:56:58.601Z,5.40
2018-04-01T16:59:24.750Z,5.73
2018-04-01T17:01:51.590Z,5.30
2018-04-01T17:04:17.662Z,5.40
2018-04-01T17:06:43.831Z,5.17
2018-04-01T17:09:10.913Z,5.87
2018-04-01T17:11:38.082Z,6.13
2018-04-01T17:14:06.151Z,5.90
2018-04-01T17:16:32.344Z,5.87
2018-04-01T17:18:58.454Z,6.27
2018-04-01T17:21:24.632Z,7.17
2018-04-01T17:23:50.684Z,7.50
2018-04-01T17:26:16.786Z,7.30
2018-04-01T17:28:42.890Z,7.37
2018-04-01T17:31:09.753Z,6.93
2018-04-01T17:33:36.769Z,6.87
2018-04-01T17:36:02.870Z,8.10
2018-04-01T17:38:28.982Z,7.97
2018-04-01T17:40:55.823Z,7.90
2018-04-01T17:43:22.718Z,8.20
2018-04-01T17:45:48.806Z,7.80
2018-04-01T17:48:14.985Z,7.37
2018-04-01T17:50:41.832Z,7.90
2018-04-01T17:53:08.866Z,8.20
2018-04-01T17:55:35.549Z,7.20
2018-04-01T17:58:01.671Z,8.73
2018-04-01T18:00:28.535Z,9.10
2018-04-01T18:02:54.604Z,9.50
2018-04-01T18:05:20.756Z,8.87
2018-04-01T18:07:46.969Z,8.73
2018-04-01T18:10:13.162Z,9.07
2018-04-01T18:12:39.232Z,9.70
2018-04-01T18:15:05.567Z,10.67
2018-04-01T18:17:31.858Z,9.17
2018-04-01T18:19:57.981Z,9.40
2018-04-01T18:22:24.059Z,8.90
2018-04-01T18:24:50.143Z,9.27
2018-04-01T18:27:16.991Z,10.87
2018-04-01T18:29:43.871Z,10.00
2018-04-01T18:32:10.027Z,10.33
2018-04-01T18:34:36.217Z,9.70
2018-04-01T18:37:03.072Z,10.07
2018-04-01T18:39:29.158Z,11.17
2018-04-01T18:41:55.339Z,11.60
2018-04-01T18:44:21.451Z,10.40
2018-04-01T18:46:47.495Z,10.93
2018-04-01T18:49:14.389Z,11.17
2018-04-01T18:51:41.313Z,10.63
2018-04-01T18:54:07.446Z,10.17
2018-04-01T18:56:34.247Z,10.80
2018-04-01T18:59:00.442Z,10.10
2018-04-01T19:01:26.672Z,10.23
2018-04-01T19:03:52.814Z,10.87
2018-04-01T19:06:19.037Z,9.93
2018-04-01T19:08:45.204Z,10.30
2018-04-01T19:11:11.363Z,10.63
2018-04-01T19:13:39.716Z,11.43
2018-04-01T19:16:11.803Z,11.47
2018-04-01T19:18:38.529Z,11.30
2018-04-01T19:21:06.173Z,13.03
2018-04-01T19:23:32.718Z,12.10
2018-04-01T19:25:58.977Z,12.40
2018-04-01T19:28:30.789Z,13.23
2018-04-01T19:31:00.079Z,13.73
2018-04-01T19:33:28.042Z,14.17
2018-04-01T19:36:00.424Z,16.10
2018-04-01T19:38:36.027Z,16.63
2018-04-01T19:41:07.065Z,15.43
2018-04-01T19:43:40.469Z,14.13
2018-04-01T19:46:10.261Z,14.27
2018-04-01T19:48:36.814Z,14.43
2018-04-01T19:51:03.932Z,13.17
2018-04-01T19:59:16.022Z,14.67
2018-04-01T20:01:45.125Z,13.67
2018-04-01T20:04:14.831Z,15.07
2018-04-01T20:06:44.436Z,12.53
2018-04-01T20:09:11.009Z,13.87
2018-04-01T20:11:38.421Z,12.80
2018-04-01T20:14:06.058Z,11.33
2018-04-01T20:16:34.504Z,11.37
2018-04-01T20:19:00.861Z,10.50
2018-04-01T20:21:27.151Z,11.30
2018-04-01T20:23:53.585Z,11.40
2018-04-01T20:26:20.254Z,11.00
2018-04-01T20:28:47.498Z,11.03
2018-04-01T20:31:15.989Z,11.70
2018-04-01T20:33:42.371Z,9.73
2018-04-01T20:36:09.379Z,10.60
2018-04-01T20:38:35.683Z,10.80
2018-04-01T20:41:01.936Z,10.70
2018-04-01T20:43:28.956Z,10.20
2018-04-01T20:45:55.256Z,9.57
2018-04-01T20:48:21.526Z,10.20
2018-04-01T20:50:48.794Z,9.53
2018-04-01T20:53:15.146Z,9.60
2018-04-01T20:55:41.379Z,9.77
2018-04-01T20:58:07.655Z,9.77
2018-04-01T21:00:33.927Z,9.70
2018-04-01T21:03:00.193Z,10.13
2018-04-01T21:05:26.451Z,9.73
2018-04-01T21:07:54.393Z,8.97
2018-04-01T21:10:20.986Z,9.20
2018-04-01T21:12:47.297Z,10.43
2018-04-01T21:15:14.890Z,11.00
2018-04-01T21:17:41.824Z,9.80
2018-04-01T21:20:08.092Z,9.60
2018-04-01T21:22:34.381Z,9.47
2018-04-01T21:25:17.016Z,9.70
2018-04-01T21:27:43.303Z,10.23
2018-04-01T21:30:09.519Z,9.60
2018-04-01T21:32:35.801Z,9.47
2018-04-01T21:35:02.049Z,9.10
2018-04-01T21:37:28.302Z,10.50
2018-04-01T21:39:55.454Z,10.63
2018-04-01T21:42:21.703Z,10.20
2018-04-01T21:44:48.123Z,11.00
2018-04-01T21:47:14.383Z,10.13
2018-04-01T21:49:40.630Z,9.63
2018-04-01T21:52:06.883Z,9.97
2018-04-01T21:54:33.172Z,9.47
2018-04-01T21:56:59.422Z,9.60
2018-04-01T21:59:25.632Z,9.30
2018-04-01T22:01:52.683Z,10.10
2018-04-01T22:04:19.688Z,9.77
2018-04-01T22:06:45.922Z,10.87
2018-04-01T22:09:12.158Z,10.23
2018-04-01T22:11:42.016Z,10.33
2018-04-01T22:14:08.248Z,10.60
2018-04-01T22:16:34.494Z,11.97
2018-04-01T22:19:00.729Z,12.37
2018-04-01T22:21:26.973Z,10.07
2018-04-01T22:23:53.393Z,12.77
2018-04-01T22:26:19.700Z,12.87
2018-04-01T22:28:57.895Z,12.00
2018-04-01T22:31:24.213Z,11.90
2018-04-01T22:33:51.237Z,11.83
2018-04-01T22:36:17.551Z,13.30
2018-04-01T22:38:43.810Z,12.67
2018-04-01T22:41:10.779Z,11.80
2018-04-01T22:43:37.762Z,13.00
2018-04-01T22:46:21.318Z,12.17
2018-04-01T22:48:49.668Z,10.90
2018-04-01T22:51:16.669Z,12.43
2018-04-01T22:53:42.950Z,12.87
2018-04-01T22:56:09.257Z,13.03
2018-04-01T22:58:35.552Z,12.77
2018-04-01T23:01:01.828Z,13.00
2018-04-01T23:03:28.071Z,13.27
2018-04-01T23:05:55.205Z,14.20
2018-04-01T23:08:22.240Z,13.87
2018-04-01T23:10:48.496Z,13.30
2018-04-01T23:13:15.503Z,12.60
2018-04-01T23:15:41.762Z,12.77
2018-04-01T23:18:13.607Z,12.67
2018-04-01T23:20:39.865Z,10.93
2018-04-01T23:23:06.154Z,11.67
2018-04-01T23:25:33.197Z,12.97
2018-04-01T23:27:59.513Z,13.30
2018-04-01T23:30:25.794Z,13.50
2018-04-01T23:32:52.034Z,12.53
2018-04-01T23:35:18.951Z,13.13
2018-04-01T23:37:45.209Z,12.80
2018-04-01T23:45:58.506Z,13.43
2018-04-01T23:48:24.782Z,13.50
2018-04-01T23:50:51.057Z,14.07
2018-04-01T23:53:18.492Z,14.03
2018-04-01T23:55:44.925Z,13.37
2018-04-01T23:58:11.423Z,12.47
